Time;durP1;ratioP1;P1;durP2;ratioP2;P2;SDS_P1;SDS_P2;PMS_P1;PMS_P2;Temp;Humidity;BMP_temperature;BMP_pressure;BME280_temperature;BME280_humidity;BME280_pressure;Samples;Min_cycle;Max_cycle;Signal;HPM_P1;HPM_P2
2022/01/23 08:09:30;;;;;;;;;;;;;;;1.58;67.19;98417.38;4230266;28;5778;-69
2022/01/23 08:11:33;;;;;;;;;;;;;;;1.37;68.04;98420.41;4230092;28;5769;-69
2022/01/23 08:13:35;;;;;;;;;;;;;;;1.41;67.98;98421.06;4230418;28;5806;-69
2022/01/23 08:15:36;;;;;;;;;;;;;;;1.54;67.86;98423.72;4229936;28;5772;-69
2022/01/23 08:17:38;;;;;;;;;;;;;;;1.73;67.13;98424.22;4230113;28;5702;-69
2022/01/23 08:19:40;;;;;;;;;;;;;;;1.84;66.77;98428.75;4230147;28;5770;-69
2022/01/23 08:21:42;;;;;;;;;;;;;;;1.84;66.84;98431.38;4230148;28;5785;-69
2022/01/23 08:23:43;;;;;;;;;;;;;;;1.40;67.88;98433.25;4230142;28;5874;-69
2022/01/23 08:25:46;;;;;;;;;;;;;;;1.28;68.59;98427.97;4225321;28;6021;-69
2022/01/23 08:27:49;;;;;;;;;;;;;;;1.65;67.73;98424.72;4217083;28;5790;-68
2022/01/23 08:29:52;;;;;;;;;;;;;;;1.75;67.14;98425.78;4224034;28;5804;-69
2022/01/23 08:31:53;;;;;;;;;;;;;;;1.79;67.17;98423.81;4216412;28;5795;-70
2022/01/23 08:33:55;;;;;;;;;;;;;;;1.81;66.98;98416.72;4228508;28;5883;-70
2022/01/23 08:35:57;;;;;;;;;;;;;;;1.90;66.71;98426.56;4229612;27;5918;-70
2022/01/23 08:37:59;;;;;;;;;;;;;;;1.91;66.78;98422.19;4212900;28;5807;-69
2022/01/23 08:40:01;;;;;;;;;;;;;;;1.91;66.94;98428.25;4210537;28;5845;-69
2022/01/23 08:42:11;;;;;;;;;;;;;;;2.01;66.55;98424.09;4225134;28;5778;-68
2022/01/23 08:44:29;;;;;;;;;;;;;;;2.02;66.41;98422.31;4216283;28;5815;-69
2022/01/23 08:46:30;;;;;;;;;;;;;;;2.08;66.29;98418.50;4224426;28;5815;-69
2022/01/23 08:48:32;;;;;;;;;;;;;;;2.16;65.90;98419.69;4222354;28;5691;-70
2022/01/23 08:50:35;;;;;;;;;;;;;;;2.14;66.31;98412.88;4225030;28;5114;-69
2022/01/23 08:52:37;;;;;;;;;;;;;;;2.28;66.07;98418.88;4215350;28;7746;-69
2022/01/23 08:54:39;;;;;;;;;;;;;;;2.28;66.00;98412.81;4224403;28;5758;-69
2022/01/23 08:56:42;;;;;;;;;;;;;;;2.32;65.96;98411.66;4229265;28;5769;-69
2022/01/23 08:58:44;;;;;;;;;;;;;;;2.31;65.79;98410.81;4212421;28;5924;-69
2022/01/23 09:00:46;;;;;;;;;;;;;;;2.29;65.94;98407.47;4210713;28;6563;-69
2022/01/23 09:02:49;;;;;;;;;;;;;;;2.36;65.92;98410.50;4220953;28;5926;-69
2022/01/23 09:04:52;;;;;;;;;;;;;;;2.33;65.82;98406.34;4220851;28;5775;-69
2022/01/23 09:06:56;;;;;;;;;;;;;;;2.36;65.91;98407.91;4213828;28;5667;-69
2022/01/23 09:09:04;;;;;;;;;;;;;;;2.09;66.63;98412.34;4169251;28;5850;-69
2022/01/23 09:11:13;;;;;;;;;;;;;;;2.25;66.32;98415.59;4207556;28;6506;-70
2022/01/23 09:13:30;;;;;;;;;;;;;;;2.39;66.04;98412.09;4201208;28;5783;-69
2022/01/23 09:15:32;;;;;;;;;;;;;;;2.48;65.91;98416.69;4204074;28;5759;-69
2022/01/23 09:17:34;;;;;;;;;;;;;;;2.33;65.81;98414.16;4201175;28;5997;-69
2022/01/23 09:19:36;;;;;;;;;;;;;;;2.40;65.99;98414.59;4207441;28;5854;-70
2022/01/23 09:21:39;;;;;;;;;;;;;;;2.56;65.75;98415.22;4200838;28;5936;-70
2022/01/23 09:23:41;;;;;;;;;;;;;;;2.66;65.33;98409.38;4200509;28;5770;-70
2022/01/23 09:25:43;;;;;;;;;;;;;;;2.68;65.17;98403.13;4199944;28;5816;-69
2022/01/23 09:27:46;;;;;;;;;;;;;;;2.83;65.07;98406.44;4201306;28;5971;-68
2022/01/23 09:29:51;;;;;;;;;;;;;;;2.83;65.10;98402.09;4203906;28;5802;-68
2022/01/23 09:31:54;;;;;;;;;;;;;;;2.68;65.31;98397.06;4205303;28;5804;-69
2022/01/23 09:34:02;;;;;;;;;;;;;;;2.71;65.28;98396.84;4211789;28;5778;-69
2022/01/23 09:36:03;;;;;;;;;;;;;;;2.71;65.43;98392.44;4199316;28;6147;-68
2022/01/23 09:38:05;;;;;;;;;;;;;;;2.70;65.54;98403.84;4214170;28;5793;-68
2022/01/23 09:40:08;;;;;;;;;;;;;;;2.66;65.80;98405.00;4211440;28;6487;-69
2022/01/23 09:42:15;;;;;;;;;;;;;;;2.67;65.92;98404.06;4210293;28;5831;-69
2022/01/23 09:44:19;;;;;;;;;;;;;;;2.77;65.68;98399.88;4210048;28;5825;-69
2022/01/23 09:46:24;;;;;;;;;;;;;;;2.77;65.70;98405.09;4212226;28;5847;-69
2022/01/23 09:48:28;;;;;;;;;;;;;;;2.71;65.75;98402.91;4206118;28;6501;-69
2022/01/23 09:50:32;;;;;;;;;;;;;;;2.75;65.55;98407.00;4210599;28;5864;-69
2022/01/23 09:52:35;;;;;;;;;;;;;;;2.74;65.46;98410.53;4217361;28;5778;-69
2022/01/23 09:54:39;;;;;;;;;;;;;;;2.74;65.32;98417.53;4212332;28;5853;-69
2022/01/23 09:56:43;;;;;;;;;;;;;;;2.79;65.40;98418.88;4209196;28;5776;-70
2022/01/23 09:58:44;;;;;;;;;;;;;;;2.69;65.64;98420.44;4198898;28;5918;-68
2022/01/23 10:00:47;;;;;;;;;;;;;;;2.78;65.72;98421.59;4204860;28;5809;-70
2022/01/23 10:02:50;;;;;;;;;;;;;;;2.81;65.30;98414.38;4191544;28;5935;-70
2022/01/23 10:04:53;;;;;;;;;;;;;;;2.78;65.35;98414.59;4203314;28;5869;-70
2022/01/23 10:06:55;;;;;;;;;;;;;;;2.70;65.59;98427.34;4214807;28;6595;-68
2022/01/23 10:08:57;;;;;;;;;;;;;;;2.87;65.11;98429.66;4197950;28;5827;-69
2022/01/23 10:10:59;;;;;;;;;;;;;;;2.76;65.31;98415.66;4213472;28;5688;-69
2022/01/23 10:13:01;;;;;;;;;;;;;;;2.88;65.26;98420.88;4203426;28;5784;-70
2022/01/23 10:15:03;;;;;;;;;;;;;;;2.86;65.48;98408.88;4208268;28;5682;-69
2022/01/23 10:17:07;;;;;;;;;;;;;;;2.80;65.22;98401.44;4205223;28;5680;-70
2022/01/23 10:19:08;;;;;;;;;;;;;;;2.82;65.18;98400.38;4217561;28;5706;-70
2022/01/23 10:21:13;;;;;;;;;;;;;;;2.83;65.16;98390.78;4217557;28;5809;-70
2022/01/23 10:23:15;;;;;;;;;;;;;;;2.82;65.66;98394.34;4201593;28;5796;-70
2022/01/23 10:25:28;;;;;;;;;;;;;;;2.73;65.88;98387.97;4201311;28;5847;-70
2022/01/23 10:28:05;;;;;;;;;;;;;;;2.66;66.53;98394.56;4206140;28;5676;-70
2022/01/23 10:30:17;;;;;;;;;;;;;;;2.84;65.87;98397.69;4204985;28;5693;-70
2022/01/23 10:32:23;;;;;;;;;;;;;;;2.88;65.99;98391.31;4190176;28;5708;-70
2022/01/23 10:34:40;;;;;;;;;;;;;;;2.91;65.84;98394.53;4213948;28;5804;-70
2022/01/23 10:36:49;;;;;;;;;;;;;;;2.86;65.88;98386.19;4202511;28;5798;-70
2022/01/23 10:39:01;;;;;;;;;;;;;;;3.02;66.05;98385.13;4212950;28;5675;-70
2022/01/23 10:47:50;;;;;;;;;;;;;;;3.00;65.53;98381.78;4203675;28;5951;-69
2022/01/23 10:50:07;;;;;;;;;;;;;;;2.83;66.37;98369.88;4184097;28;5807;-71
2022/01/23 10:52:26;;;;;;;;;;;;;;;2.91;65.88;98373.63;4203655;28;5697;-70
2022/01/23 10:54:34;;;;;;;;;;;;;;;2.83;66.44;98370.75;4205739;28;5800;-69
2022/01/23 10:56:59;;;;;;;;;;;;;;;2.95;66.38;98378.66;4207304;28;5854;-70
2022/01/23 10:59:05;;;;;;;;;;;;;;;3.06;65.90;98378.72;4207178;28;5712;-70
2022/01/23 11:01:07;;;;;;;;;;;;;;;2.85;66.36;98366.25;4205419;28;5808;-70
2022/01/23 11:03:24;;;;;;;;;;;;;;;2.98;66.07;98368.00;4206266;28;5676;-70
2022/01/23 11:05:34;;;;;;;;;;;;;;;3.02;66.01;98370.28;4209189;28;5687;-70
2022/01/23 11:07:40;;;;;;;;;;;;;;;2.81;66.84;98364.75;4206963;28;5775;-69
2022/01/23 11:09:41;;;;;;;;;;;;;;;2.95;66.33;98357.78;4208358;28;5834;-68
2022/01/23 11:11:46;;;;;;;;;;;;;;;3.09;65.90;98355.00;4206069;28;5782;-69
2022/01/23 11:18:57;;;;;;;;;;;;;;;3.31;65.65;98338.66;4213825;28;5664;-69
2022/01/23 11:21:16;;;;;;;;;;;;;;;3.28;65.90;98346.69;4215204;28;5839;-69
2022/01/23 11:23:27;;;;;;;;;;;;;;;3.45;65.54;98335.88;4209381;28;5748;-69
2022/01/23 11:25:29;;;;;;;;;;;;;;;3.50;65.74;98338.97;4189520;28;5720;-73
2022/01/23 11:27:37;;;;;;;;;;;;;;;3.49;65.77;98332.91;4209991;28;5777;-72
2022/01/23 11:30:01;;;;;;;;;;;;;;;3.46;65.99;98329.69;4194295;28;5107;-71
2022/01/23 11:32:06;;;;;;;;;;;;;;;3.58;65.36;98330.56;4205305;28;5680;-72
2022/01/23 11:34:09;;;;;;;;;;;;;;;3.46;64.88;98333.13;4208949;28;6473;-72
2022/01/23 11:36:11;;;;;;;;;;;;;;;3.44;64.50;98324.56;4202874;28;5728;-69
2022/01/23 11:38:17;;;;;;;;;;;;;;;3.40;64.87;98327.53;4217121;28;5791;-70
2022/01/23 11:40:34;;;;;;;;;;;;;;;3.40;65.02;98328.38;4207892;28;5913;-70
2022/01/23 11:54:39;;;;;;;;;;;;;;;3.30;65.47;98319.50;4201942;28;5697;-72
2022/01/23 11:56:43;;;;;;;;;;;;;;;3.31;65.65;98318.56;4200798;28;5692;-67
2022/01/23 11:58:45;;;;;;;;;;;;;;;3.32;65.54;98320.22;4202795;28;5863;-68
2022/01/23 12:00:47;;;;;;;;;;;;;;;3.29;65.64;98315.22;4211148;28;5172;-69
2022/01/23 12:03:19;;;;;;;;;;;;;;;3.28;65.53;98316.16;4205817;28;7769;-67
2022/01/23 12:05:25;;;;;;;;;;;;;;;3.20;65.77;98313.28;4202905;28;5684;-69
2022/01/23 12:07:26;;;;;;;;;;;;;;;3.17;65.62;98313.47;4198271;28;5696;-70
2022/01/23 12:09:28;;;;;;;;;;;;;;;3.14;65.84;98316.31;4207188;28;5841;-69
2022/01/23 12:11:41;;;;;;;;;;;;;;;3.24;66.10;98316.50;4202061;28;5907;-71
2022/01/23 12:18:29;;;;;;;;;;;;;;;3.36;65.48;98315.59;4204550;28;5717;-72
2022/01/23 12:20:33;;;;;;;;;;;;;;;3.35;65.92;98306.09;4205772;28;5791;-71
2022/01/23 12:22:54;;;;;;;;;;;;;;;3.34;66.33;98284.34;4202836;28;5785;-71
2022/01/23 12:25:28;;;;;;;;;;;;;;;3.41;66.21;98285.59;4204943;28;5667;-72
2022/01/23 12:27:31;;;;;;;;;;;;;;;3.51;66.43;98298.78;4204522;28;5866;-70
2022/01/23 12:29:36;;;;;;;;;;;;;;;3.52;66.05;98295.25;4211411;28;5679;-66
2022/01/23 12:31:47;;;;;;;;;;;;;;;3.45;66.55;98294.03;4203926;28;5723;-68
2022/01/23 12:33:58;;;;;;;;;;;;;;;3.31;66.94;98281.97;4205509;28;5725;-67
2022/01/23 12:36:23;;;;;;;;;;;;;;;3.32;67.31;98285.41;4185751;28;5868;-67
2022/01/23 12:38:33;;;;;;;;;;;;;;;3.40;67.11;98273.47;4199165;28;5768;-69
2022/01/23 12:40:40;;;;;;;;;;;;;;;3.44;66.75;98272.28;4201871;28;5681;-70
2022/01/23 12:43:11;;;;;;;;;;;;;;;3.48;66.60;98267.66;4209138;28;5671;-70
2022/01/23 12:45:44;;;;;;;;;;;;;;;3.43;66.95;98268.00;4215326;28;5874;-70
2022/01/23 12:47:47;;;;;;;;;;;;;;;3.57;66.74;98266.16;4199122;22;5764;-71
2022/01/23 12:49:51;;;;;;;;;;;;;;;3.43;67.13;98260.16;4182188;28;5839;-69
2022/01/23 12:52:07;;;;;;;;;;;;;;;3.38;67.00;98262.25;4184402;28;5760;-68
2022/01/23 12:54:16;;;;;;;;;;;;;;;3.32;67.11;98247.03;4185433;28;5760;-69
2022/01/23 12:56:35;;;;;;;;;;;;;;;3.37;67.01;98255.38;4156556;28;5953;-67
2022/01/23 12:58:37;;;;;;;;;;;;;;;3.29;66.52;98254.28;4176787;28;5777;-68
2022/01/23 13:00:38;;;;;;;;;;;;;;;3.19;66.78;98254.13;4178430;28;5852;-69
2022/01/23 13:02:46;;;;;;;;;;;;;;;3.35;66.25;98256.44;4180495;28;5792;-69
2022/01/23 13:04:51;;;;;;;;;;;;;;;3.44;66.10;98264.44;4160248;28;6020;-69
2022/01/23 13:07:00;;;;;;;;;;;;;;;3.27;66.32;98254.38;4163587;28;6012;-69
2022/01/23 13:12:03;;;;;;;;;;;;;;;3.01;67.52;98239.75;4162434;28;5954;-70
2022/01/23 13:14:05;;;;;;;;;;;;;;;3.34;66.76;98232.06;4171864;28;5999;-70
2022/01/23 13:18:35;;;;;;;;;;;;;;;3.35;66.43;98223.28;4182664;28;5883;-70
2022/01/23 13:30:22;;;;;;;;;;;;;;;3.57;66.31;98216.47;4159380;28;5947;-76
2022/01/23 13:32:41;;;;;;;;;;;;;;;3.38;67.31;98214.38;4178835;28;5855;-78
2022/01/23 13:34:45;;;;;;;;;;;;;;;3.47;66.78;98198.84;4176776;28;5880;-78
2022/01/23 13:37:01;;;;;;;;;;;;;;;3.51;67.05;98191.59;4171371;28;5982;-77
2022/01/23 13:39:07;;;;;;;;;;;;;;;3.58;66.92;98190.19;4174300;28;5849;-76
2022/01/23 13:41:24;;;;;;;;;;;;;;;3.68;66.59;98190.34;4165910;28;7783;-77
2022/01/23 13:53:09;;;;;;;;;;;;;;;3.60;66.80;98169.16;4169991;28;5897;-77
2022/01/23 13:57:39;;;;;;;;;;;;;;;3.45;67.68;98177.22;4179235;28;5944;-77
2022/01/23 13:59:51;;;;;;;;;;;;;;;3.45;67.87;98179.00;4160592;28;5880;-77
2022/01/23 14:02:09;;;;;;;;;;;;;;;3.46;67.62;98176.25;4178747;28;5867;-78
2022/01/23 14:04:17;;;;;;;;;;;;;;;3.53;67.38;98179.25;4161317;28;5900;-77
2022/01/23 14:06:20;;;;;;;;;;;;;;;3.42;67.75;98177.44;4179799;28;5827;-77
2022/01/23 14:08:24;;;;;;;;;;;;;;;3.53;67.62;98175.81;4163970;28;6009;-77
2022/01/23 14:10:29;;;;;;;;;;;;;;;3.58;67.86;98178.91;4145010;28;6069;-77
2022/01/23 14:12:32;;;;;;;;;;;;;;;3.42;68.27;98174.00;4165025;28;5099;-78
2022/01/23 14:14:51;;;;;;;;;;;;;;;3.53;67.97;98173.19;4180168;28;6710;-77
2022/01/23 14:16:55;;;;;;;;;;;;;;;3.57;67.86;98166.78;4160021;28;5944;-76
2022/01/23 14:19:19;;;;;;;;;;;;;;;3.62;67.05;98165.47;4179492;28;5867;-78
2022/01/23 14:21:22;;;;;;;;;;;;;;;3.65;66.63;98164.44;4160879;28;5888;-77
2022/01/23 14:23:25;;;;;;;;;;;;;;;3.62;66.53;98151.56;4159021;28;5909;-77
2022/01/23 14:25:29;;;;;;;;;;;;;;;3.65;66.63;98146.13;4179575;28;5875;-77
2022/01/23 14:27:31;;;;;;;;;;;;;;;3.67;66.91;98146.84;4165104;28;5828;-78
2022/01/23 14:29:46;;;;;;;;;;;;;;;3.70;66.91;98147.41;4164478;28;5909;-77
2022/01/23 14:32:18;;;;;;;;;;;;;;;3.68;66.99;98156.34;4156299;28;5774;-77
2022/01/23 14:34:23;;;;;;;;;;;;;;;3.72;66.80;98163.00;4181708;28;5881;-78
2022/01/23 14:36:28;;;;;;;;;;;;;;;3.73;66.76;98159.44;4165936;28;5889;-78
2022/01/23 14:38:31;;;;;;;;;;;;;;;3.66;66.46;98156.47;4178291;28;6967;-77
2022/01/23 14:40:35;;;;;;;;;;;;;;;3.62;66.51;98164.63;4170194;28;6613;-73
2022/01/23 14:42:37;;;;;;;;;;;;;;;3.63;66.95;98168.94;4178220;28;5879;-73
2022/01/23 14:44:39;;;;;;;;;;;;;;;3.54;66.88;98167.03;4172430;28;5862;-74
2022/01/23 14:46:41;;;;;;;;;;;;;;;3.59;66.96;98170.09;4162883;28;5881;-75
2022/01/23 14:48:47;;;;;;;;;;;;;;;3.64;67.20;98170.63;4163535;28;5861;-75
2022/01/23 14:50:52;;;;;;;;;;;;;;;3.64;67.20;98178.47;4155132;28;5884;-70
2022/01/23 14:52:54;;;;;;;;;;;;;;;3.77;66.88;98179.19;4160655;28;5977;-73
2022/01/23 14:54:56;;;;;;;;;;;;;;;3.72;66.88;98182.13;4161549;28;5962;-71
2022/01/23 14:57:01;;;;;;;;;;;;;;;3.71;66.95;98177.03;4163265;28;5835;-71
2022/01/23 14:59:08;;;;;;;;;;;;;;;3.71;67.04;98177.84;4164846;28;5850;-70
2022/01/23 15:01:12;;;;;;;;;;;;;;;3.65;67.31;98182.72;4159627;28;5766;-71
2022/01/23 15:03:14;;;;;;;;;;;;;;;3.68;67.09;98182.50;4165307;28;5924;-70
2022/01/23 15:05:16;;;;;;;;;;;;;;;3.63;67.33;98184.63;4167073;28;5851;-70
2022/01/23 15:07:18;;;;;;;;;;;;;;;3.61;67.54;98181.28;4163167;28;5932;-69
2022/01/23 15:09:23;;;;;;;;;;;;;;;3.57;67.44;98182.47;4164246;28;5895;-68
2022/01/23 15:11:26;;;;;;;;;;;;;;;3.50;67.89;98172.47;4161981;28;5859;-69
2022/01/23 15:13:30;;;;;;;;;;;;;;;3.53;67.86;98176.66;4160530;28;5888;-70
2022/01/23 15:15:33;;;;;;;;;;;;;;;3.55;67.86;98174.75;4161506;28;5764;-70
2022/01/23 15:17:37;;;;;;;;;;;;;;;3.43;68.01;98180.91;4163517;28;5924;-70
2022/01/23 15:19:39;;;;;;;;;;;;;;;3.33;68.10;98180.75;4170312;23;5761;-71
2022/01/23 15:21:41;;;;;;;;;;;;;;;3.34;68.71;98184.19;4166482;28;5901;-71
2022/01/23 15:23:42;;;;;;;;;;;;;;;3.29;68.36;98173.25;4165346;28;5980;-69
2022/01/23 15:25:46;;;;;;;;;;;;;;;3.35;68.66;98173.63;4168955;28;6004;-70
2022/01/23 15:27:47;;;;;;;;;;;;;;;3.32;68.43;98176.47;4167011;28;6001;-69
2022/01/23 15:29:49;;;;;;;;;;;;;;;3.30;68.42;98180.97;4160557;28;6566;-70
2022/01/23 15:31:51;;;;;;;;;;;;;;;3.37;68.17;98179.56;4141866;28;5756;-66
2022/01/23 15:33:53;;;;;;;;;;;;;;;3.37;68.18;98181.34;4160743;28;5797;-69
2022/01/23 15:35:55;;;;;;;;;;;;;;;3.40;68.13;98187.19;4164385;28;6016;-69
2022/01/23 15:37:57;;;;;;;;;;;;;;;3.42;68.21;98182.69;4149158;28;5787;-69
2022/01/23 15:39:58;;;;;;;;;;;;;;;3.38;68.41;98186.44;4151146;28;5673;-69
2022/01/23 15:42:00;;;;;;;;;;;;;;;3.38;68.47;98191.69;4168653;28;5798;-69
2022/01/23 15:44:02;;;;;;;;;;;;;;;3.38;68.26;98198.69;4134933;28;5973;-69
2022/01/23 15:46:09;;;;;;;;;;;;;;;3.20;68.97;98203.50;4169309;28;5778;-69
2022/01/23 15:48:11;;;;;;;;;;;;;;;3.25;68.90;98209.22;4151397;28;5609;-69
2022/01/23 15:50:15;;;;;;;;;;;;;;;3.04;69.90;98205.56;4168882;28;5782;-69
2022/01/23 15:52:17;;;;;;;;;;;;;;;3.24;68.99;98210.16;4168867;28;5778;-69
2022/01/23 15:54:19;;;;;;;;;;;;;;;3.41;68.22;98207.16;4151614;28;5680;-69
2022/01/23 15:56:21;;;;;;;;;;;;;;;3.38;68.14;98198.69;4168492;28;5774;-69
2022/01/23 15:58:23;;;;;;;;;;;;;;;3.05;69.10;98209.84;4168577;28;5773;-68
2022/01/23 16:00:25;;;;;;;;;;;;;;;3.08;69.12;98212.25;4168584;28;5789;-68
2022/01/23 16:02:27;;;;;;;;;;;;;;;2.84;69.75;98220.09;4145852;28;5823;-68
2022/01/23 16:04:32;;;;;;;;;;;;;;;2.87;69.90;98228.53;4164470;28;5789;-68
2022/01/23 16:06:34;;;;;;;;;;;;;;;2.92;69.74;98233.41;4168654;28;5864;-68
2022/01/23 16:08:36;;;;;;;;;;;;;;;2.95;69.64;98227.16;4149206;28;5910;-69
2022/01/23 16:10:37;;;;;;;;;;;;;;;2.91;69.68;98221.28;4165799;28;5810;-69
2022/01/23 16:12:41;;;;;;;;;;;;;;;2.86;70.24;98223.41;4150809;28;5784;-67
2022/01/23 16:14:43;;;;;;;;;;;;;;;2.93;69.53;98222.84;4168443;28;5775;-70
2022/01/23 16:16:48;;;;;;;;;;;;;;;3.10;69.04;98220.81;4168606;28;5885;-68
2022/01/23 16:18:50;;;;;;;;;;;;;;;3.27;68.53;98224.78;4171860;28;5790;-68
2022/01/23 16:20:53;;;;;;;;;;;;;;;3.26;68.40;98221.34;4183415;28;5654;-68
2022/01/23 16:22:55;;;;;;;;;;;;;;;3.20;68.71;98227.03;4188395;28;5638;-67
2022/01/23 16:24:57;;;;;;;;;;;;;;;3.13;68.75;98226.63;4188278;28;5654;-68
2022/01/23 16:26:59;;;;;;;;;;;;;;;3.21;68.60;98233.94;4188380;28;5650;-67
2022/01/23 16:29:00;;;;;;;;;;;;;;;3.26;68.50;98233.56;4188392;28;5650;-69
2022/01/23 16:31:05;;;;;;;;;;;;;;;3.33;68.26;98233.03;4188388;28;5706;-68
2022/01/23 16:33:07;;;;;;;;;;;;;;;3.28;68.05;98234.28;4188196;28;5783;-68
2022/01/23 16:35:11;;;;;;;;;;;;;;;3.19;68.63;98233.22;4188543;28;5654;-68
2022/01/23 16:37:12;;;;;;;;;;;;;;;3.13;68.74;98236.25;4170540;28;5778;-67
2022/01/23 16:39:16;;;;;;;;;;;;;;;3.02;69.54;98237.03;4188012;28;5063;-67
2022/01/23 16:41:17;;;;;;;;;;;;;;;2.53;71.41;98239.69;4170017;28;8465;-69
2022/01/23 16:43:24;;;;;;;;;;;;;;;2.86;69.98;98242.53;4170394;28;5893;-69
2022/01/23 16:45:26;;;;;;;;;;;;;;;3.01;69.34;98240.59;4187895;28;5674;-68
2022/01/23 16:47:28;;;;;;;;;;;;;;;3.04;69.42;98239.53;4188394;28;5694;-68
2022/01/23 16:49:30;;;;;;;;;;;;;;;2.98;69.40;98238.22;4187801;28;5659;-68
2022/01/23 16:51:32;;;;;;;;;;;;;;;3.02;69.48;98242.25;4187835;28;5658;-68
2022/01/23 16:53:33;;;;;;;;;;;;;;;3.07;69.27;98239.31;4187843;28;5690;-68
2022/01/23 16:55:40;;;;;;;;;;;;;;;3.09;69.01;98234.81;4187627;28;5035;-68
2022/01/23 16:57:42;;;;;;;;;;;;;;;3.02;69.49;98239.63;4186623;28;5666;-68
2022/01/23 16:59:43;;;;;;;;;;;;;;;3.07;69.38;98242.78;4165567;28;5931;-68
2022/01/23 17:01:46;;;;;;;;;;;;;;;3.04;69.25;98242.13;4183977;28;5649;-68
2022/01/23 17:03:49;;;;;;;;;;;;;;;3.04;69.20;98234.31;4153298;28;5905;-68
2022/01/23 17:05:52;;;;;;;;;;;;;;;3.02;69.25;98241.41;4187378;28;6920;-68
2022/01/23 17:07:54;;;;;;;;;;;;;;;3.04;69.13;98242.13;4187957;28;5721;-68
2022/01/23 17:09:56;;;;;;;;;;;;;;;2.93;70.18;98241.13;4187634;28;5642;-68
2022/01/23 17:11:59;;;;;;;;;;;;;;;2.91;69.99;98250.03;4187819;28;5778;-68
2022/01/23 17:14:01;;;;;;;;;;;;;;;3.00;69.73;98240.69;4169631;28;5665;-68
2022/01/23 17:16:03;;;;;;;;;;;;;;;3.02;69.47;98244.03;4188012;28;5651;-68
2022/01/23 17:18:06;;;;;;;;;;;;;;;3.04;69.63;98245.59;4187497;28;5710;-68
2022/01/23 17:20:08;;;;;;;;;;;;;;;3.04;70.01;98244.75;4187187;28;5642;-68
2022/01/23 17:22:10;;;;;;;;;;;;;;;2.98;70.27;98248.66;4169921;28;5657;-69
2022/01/23 17:24:12;;;;;;;;;;;;;;;3.04;70.20;98257.81;4169523;28;5799;-68
2022/01/23 17:26:14;;;;;;;;;;;;;;;3.03;70.51;98251.75;4169497;28;5798;-68
2022/01/23 17:28:15;;;;;;;;;;;;;;;2.99;70.96;98257.31;4169369;28;5790;-68
2022/01/23 17:30:19;;;;;;;;;;;;;;;2.92;71.54;98260.38;4153501;28;5332;-68
2022/01/23 17:32:25;;;;;;;;;;;;;;;2.97;71.39;98256.59;4170410;28;7306;-69
2022/01/23 17:34:48;;;;;;;;;;;;;;;2.92;71.97;98257.75;4169531;28;5787;-69
2022/01/23 17:36:49;;;;;;;;;;;;;;;2.80;71.87;98263.84;4187172;28;5642;-69
2022/01/23 17:38:51;;;;;;;;;;;;;;;2.92;72.21;98265.59;4187488;28;5755;-69
2022/01/23 17:40:52;;;;;;;;;;;;;;;2.90;71.95;98266.66;4169432;28;5673;-68
2022/01/23 17:42:55;;;;;;;;;;;;;;;3.10;72.53;98254.78;4187505;28;5666;-68
2022/01/23 17:44:57;;;;;;;;;;;;;;;3.23;70.91;98260.78;4187402;28;5670;-68
2022/01/23 17:47:19;;;;;;;;;;;;;;;3.30;70.52;98269.03;4152731;28;5696;-68
2022/01/23 17:49:33;;;;;;;;;;;;;;;3.33;70.47;98253.94;4187228;28;5649;-68
2022/01/23 17:51:36;;;;;;;;;;;;;;;3.29;70.99;98257.72;4186986;28;6169;-68
2022/01/23 17:53:37;;;;;;;;;;;;;;;3.35;70.47;98252.03;4186422;28;5646;-69
2022/01/23 17:55:40;;;;;;;;;;;;;;;3.38;70.84;98259.66;4187462;28;6299;-69
2022/01/23 17:57:41;;;;;;;;;;;;;;;3.44;70.36;98256.59;4187038;28;5665;-69
2022/01/23 17:59:44;;;;;;;;;;;;;;;3.53;69.95;98262.09;4186577;28;5649;-69
2022/01/23 18:01:46;;;;;;;;;;;;;;;3.49;69.79;98259.69;4186814;28;5685;-69
2022/01/23 18:03:49;;;;;;;;;;;;;;;3.46;70.12;98259.09;4185572;28;5781;-69
2022/01/23 18:05:52;;;;;;;;;;;;;;;3.43;70.15;98265.38;4168762;28;5796;-69
2022/01/23 18:07:53;;;;;;;;;;;;;;;3.45;70.11;98263.50;4186674;28;5649;-67
2022/01/23 18:09:58;;;;;;;;;;;;;;;3.46;70.13;98262.53;4186787;28;5693;-68
2022/01/23 18:11:59;;;;;;;;;;;;;;;3.28;70.92;98273.50;4186308;28;5660;-67
2022/01/23 18:14:07;;;;;;;;;;;;;;;3.32;71.03;98274.97;4185277;28;5642;-67
2022/01/23 18:16:10;;;;;;;;;;;;;;;3.25;71.16;98276.34;4186444;28;5754;-68
2022/01/23 18:18:12;;;;;;;;;;;;;;;3.25;71.19;98277.19;4186314;28;5653;-67
2022/01/23 18:20:14;;;;;;;;;;;;;;;3.41;70.64;98275.13;4185003;28;5760;-67
2022/01/23 18:22:15;;;;;;;;;;;;;;;3.32;70.69;98278.41;4186547;28;5669;-68
2022/01/23 18:24:18;;;;;;;;;;;;;;;3.39;70.37;98278.78;4184971;28;5646;-67
2022/01/23 18:26:20;;;;;;;;;;;;;;;3.30;70.79;98274.25;4186764;28;5688;-68
2022/01/23 18:28:26;;;;;;;;;;;;;;;3.24;71.00;98274.69;4169078;28;5792;-68
2022/01/23 18:30:28;;;;;;;;;;;;;;;3.19;71.04;98278.47;4186204;28;5750;-68
2022/01/23 18:32:51;;;;;;;;;;;;;;;3.41;70.56;98277.75;4171552;28;5631;-68
2022/01/23 18:34:53;;;;;;;;;;;;;;;3.47;70.16;98276.44;4168692;28;7391;-68
2022/01/23 18:36:55;;;;;;;;;;;;;;;3.39;70.29;98279.59;4168777;28;5728;-68
2022/01/23 18:38:57;;;;;;;;;;;;;;;3.37;70.49;98276.28;4186204;28;5634;-68
2022/01/23 18:41:00;;;;;;;;;;;;;;;2.98;71.77;98280.00;4185656;28;5761;-68
2022/01/23 18:43:06;;;;;;;;;;;;;;;3.13;71.33;98285.91;4186231;28;5642;-68
2022/01/23 18:45:08;;;;;;;;;;;;;;;2.98;71.79;98277.41;4186325;28;5641;-68
2022/01/23 18:47:09;;;;;;;;;;;;;;;2.97;72.29;98283.56;4186295;28;5650;-68
2022/01/23 18:49:11;;;;;;;;;;;;;;;3.11;72.02;98279.97;4186179;28;5766;-68
2022/01/23 18:51:13;;;;;;;;;;;;;;;2.99;72.51;98286.06;4185001;28;5769;-68
2022/01/23 18:53:26;;;;;;;;;;;;;;;2.85;72.85;98282.66;4186148;28;5713;-68
2022/01/23 18:55:31;;;;;;;;;;;;;;;2.80;72.80;98284.75;4169321;28;6653;-68
2022/01/23 18:57:38;;;;;;;;;;;;;;;2.99;72.75;98284.28;4168500;28;5774;-69
2022/01/23 18:59:48;;;;;;;;;;;;;;;3.11;72.46;98288.63;4186294;28;5708;-68
2022/01/23 19:01:54;;;;;;;;;;;;;;;3.16;72.30;98286.50;4177265;28;5801;-67
2022/01/23 19:06:06;;;;;;;;;;;;;;;3.21;71.89;98292.25;4186059;28;6345;-68
2022/01/23 19:08:12;;;;;;;;;;;;;;;3.29;71.53;98289.09;4185895;28;5717;-68
2022/01/23 19:10:19;;;;;;;;;;;;;;;2.95;72.33;98292.47;4185775;28;5691;-68
2022/01/23 19:12:25;;;;;;;;;;;;;;;2.91;72.49;98287.44;4185748;28;5654;-68
2022/01/23 19:14:26;;;;;;;;;;;;;;;2.99;72.52;98296.50;4186025;28;5691;-68
2022/01/23 19:16:28;;;;;;;;;;;;;;;3.17;72.15;98295.19;4168016;28;5894;-68
2022/01/23 19:18:31;;;;;;;;;;;;;;;3.12;71.87;98287.69;4185518;28;6060;-68
2022/01/23 19:20:32;;;;;;;;;;;;;;;2.93;72.54;98292.53;4185352;28;5643;-69
2022/01/23 19:22:34;;;;;;;;;;;;;;;2.71;74.17;98282.78;4167728;28;5782;-69
2022/01/23 19:24:39;;;;;;;;;;;;;;;2.95;72.68;98284.63;4186104;28;5642;-69
2022/01/23 19:26:41;;;;;;;;;;;;;;;2.97;72.34;98293.19;4185626;28;5788;-69
2022/01/23 19:28:43;;;;;;;;;;;;;;;3.07;72.39;98283.75;4167728;28;5774;-69
2022/01/23 19:30:45;;;;;;;;;;;;;;;3.14;72.07;98284.97;4168017;28;5721;-69
2022/01/23 19:32:51;;;;;;;;;;;;;;;3.11;72.30;98282.56;4185476;28;5694;-69
2022/01/23 19:34:53;;;;;;;;;;;;;;;3.13;71.97;98291.13;4167755;28;5786;-69
2022/01/23 19:36:55;;;;;;;;;;;;;;;2.83;72.62;98281.94;4185410;28;5647;-69
2022/01/23 19:38:57;;;;;;;;;;;;;;;2.25;74.94;98293.78;4167865;28;5774;-69
2022/01/23 19:43:23;;;;;;;;;;;;;;;2.28;74.69;98296.22;4185389;28;5713;-69
2022/01/23 19:45:25;;;;;;;;;;;;;;;2.24;75.63;98299.13;4185818;28;6426;-68
2022/01/23 19:49:42;;;;;;;;;;;;;;;2.25;75.20;98296.41;4185508;28;5658;-69
2022/01/23 19:51:44;;;;;;;;;;;;;;;2.58;73.87;98297.63;4186540;28;5654;-69
2022/01/23 19:53:47;;;;;;;;;;;;;;;2.75;73.29;98297.31;4170727;28;5669;-69
2022/01/23 19:55:49;;;;;;;;;;;;;;;2.81;73.25;98304.69;4154266;28;5818;-69
2022/01/23 19:57:51;;;;;;;;;;;;;;;2.62;73.80;98304.34;4186828;28;5087;-69
2022/01/23 19:59:53;;;;;;;;;;;;;;;2.54;74.49;98304.84;4177469;28;7854;-69
2022/01/23 20:01:55;;;;;;;;;;;;;;;2.42;74.53;98303.09;4179400;28;5764;-68
2022/01/23 20:03:57;;;;;;;;;;;;;;;2.74;73.19;98311.31;4174483;28;6174;-70
2022/01/23 20:06:01;;;;;;;;;;;;;;;2.65;73.95;98308.50;4166678;28;5778;-69
2022/01/23 20:08:03;;;;;;;;;;;;;;;2.73;73.75;98306.19;4160352;28;5796;-69
2022/01/23 20:10:22;;;;;;;;;;;;;;;2.83;73.23;98302.84;4161182;28;6099;-69
2022/01/23 20:14:44;;;;;;;;;;;;;;;2.93;73.44;98297.75;4182894;28;5879;-69
2022/01/23 20:16:46;;;;;;;;;;;;;;;2.94;73.33;98299.44;4176962;28;5706;-69
2022/01/23 20:18:48;;;;;;;;;;;;;;;2.90;73.20;98313.66;4162302;28;5908;-69
2022/01/23 20:20:52;;;;;;;;;;;;;;;2.64;73.92;98302.44;4147610;28;5672;-69
2022/01/23 20:23:14;;;;;;;;;;;;;;;2.70;74.08;98302.00;4181334;28;5795;-69